Southfield Township, Michigan
Current Conditions -  °F | °C
As of 5:57 AM on Sunday 23 Nov 2014 (Local Time) from KVLL Reporting Station
Light Rain Light Rain  
Wind Chill: 45°   Ceiling: 8000
Heat Index: 48°   Visibility: 10mi
Dew Point: 43°   Wind: 8mph
Humidity: 82%   Direction: 190°S
Pressure: 29.93"   Gusts: NA
Location:  42.5206°N, 83.2664°W
Report Text: KVLL 231057Z AUTO 19007KT 10SM -RA SCT024 SCT048 BKN080 09/06 A2993 RMK AO2
Loading
Personal Weather Stations






























Interactive Weather Map New forecast layout! Learn more

10-Day Weather Forecast

Advertisements
Track Severe Weather on mobile